createdAt,value
2022-10-20T00:02:05.877Z,98122.28
2022-10-20T00:04:32.879Z,98130.03
2022-10-20T00:06:59.854Z,98127.13
2022-10-20T00:09:26.766Z,98132.38
2022-10-20T00:11:53.623Z,98131.69
2022-10-20T00:14:20.748Z,98128.38
2022-10-20T00:16:47.718Z,98130.59
2022-10-20T00:19:14.614Z,98138.16
2022-10-20T00:21:41.541Z,98135.97
2022-10-20T00:24:08.466Z,98133.19
2022-10-20T00:26:35.330Z,98126.84
2022-10-20T00:29:03.800Z,98137.91
2022-10-20T00:31:31.016Z,98142.75
2022-10-20T00:33:58.150Z,98142.59
2022-10-20T00:36:25.229Z,98139.00
2022-10-20T00:38:57.887Z,98139.41
2022-10-20T00:41:25.195Z,98137.88
2022-10-20T00:43:57.893Z,98137.22
2022-10-20T00:46:30.662Z,98139.84
2022-10-20T00:49:02.970Z,98140.50
2022-10-20T00:51:33.173Z,98135.41
2022-10-20T00:54:13.537Z,98134.28
2022-10-20T00:56:43.430Z,98132.78
2022-10-20T00:59:13.654Z,98126.41
2022-10-20T01:01:41.631Z,98131.38
2022-10-20T01:04:09.103Z,98132.22
2022-10-20T01:06:36.573Z,98146.44
2022-10-20T01:09:04.381Z,98153.75
2022-10-20T01:11:47.983Z,98155.97
2022-10-20T01:14:52.548Z,98159.84
2022-10-20T01:17:34.928Z,98172.56
2022-10-20T01:20:07.894Z,98173.94
2022-10-20T01:22:37.933Z,98167.03
2022-10-20T01:25:29.586Z,98165.09
2022-10-20T01:28:06.962Z,98166.47
2022-10-20T01:30:42.548Z,98165.09
2022-10-20T01:36:07.294Z,98158.47
2022-10-20T01:38:44.472Z,98169.13
2022-10-20T01:41:49.650Z,98159.69
2022-10-20T01:44:18.721Z,98162.59
2022-10-20T01:46:46.481Z,98155.97
2022-10-20T01:49:14.634Z,98160.81
2022-10-20T01:54:23.715Z,98173.09
2022-10-20T01:57:17.810Z,98180.28
2022-10-20T01:59:47.394Z,98174.47
2022-10-20T02:02:26.425Z,98178.41
2022-10-20T02:05:11.620Z,98182.09
2022-10-20T02:07:42.008Z,98187.22
2022-10-20T02:10:31.418Z,98190.28
2022-10-20T02:13:05.092Z,98198.16
2022-10-20T02:15:33.587Z,98204.53
2022-10-20T02:18:05.578Z,98211.16
2022-10-20T02:20:34.478Z,98203.28
2022-10-20T02:23:04.987Z,98205.75
2022-10-20T02:25:33.617Z,98209.34
2022-10-20T02:28:02.477Z,98207.53
2022-10-20T02:30:30.805Z,98211.69
2022-10-20T02:32:57.666Z,98210.47
2022-10-20T02:35:31.072Z,98214.75
2022-10-20T02:37:58.893Z,98218.19
2022-10-20T02:40:26.642Z,98213.34
2022-10-20T02:42:53.610Z,98211.44
2022-10-20T02:45:20.522Z,98212.53
2022-10-20T02:47:47.531Z,98209.63
2022-10-20T02:50:14.600Z,98208.94
2022-10-20T02:52:42.468Z,98211.84
2022-10-20T02:55:09.651Z,98216.53
2022-10-20T02:57:36.734Z,98222.47
2022-10-20T03:00:05.439Z,98228.69
2022-10-20T03:02:32.322Z,98233.53
2022-10-20T03:04:59.227Z,98231.03
2022-10-20T03:07:26.096Z,98221.50
2022-10-20T03:09:52.989Z,98233.38
2022-10-20T03:12:19.903Z,98231.31
2022-10-20T03:14:46.908Z,98235.75
2022-10-20T03:17:13.829Z,98232.88
2022-10-20T03:19:41.516Z,98230.91
2022-10-20T03:22:08.404Z,98227.72
2022-10-20T03:24:35.274Z,98234.75
2022-10-20T03:27:02.116Z,98241.94
2022-10-20T03:29:28.918Z,98242.34
2022-10-20T03:31:55.825Z,98253.78
2022-10-20T03:34:23.000Z,98257.25
2022-10-20T03:36:49.842Z,98265.50
2022-10-20T03:39:16.670Z,98259.84
2022-10-20T03:41:43.508Z,98267.28
2022-10-20T03:44:11.177Z,98268.53
2022-10-20T03:46:38.057Z,98267.16
2022-10-20T03:49:05.095Z,98264.13
2022-10-20T03:51:31.966Z,98270.22
2022-10-20T03:53:58.828Z,98278.28
2022-10-20T03:56:25.709Z,98283.00
2022-10-20T03:58:52.596Z,98279.25
2022-10-20T04:01:21.696Z,98293.19
2022-10-20T04:03:48.613Z,98302.34
2022-10-20T04:06:16.022Z,98302.91
2022-10-20T04:08:42.958Z,98308.69
2022-10-20T04:11:09.968Z,98310.78
2022-10-20T04:13:36.975Z,98308.31
2022-10-20T04:16:03.991Z,98307.50
2022-10-20T04:18:31.911Z,98305.84
2022-10-20T04:20:59.348Z,98305.84
2022-10-20T04:23:26.266Z,98311.22
2022-10-20T04:25:53.106Z,98316.59
2022-10-20T04:28:20.927Z,98315.34
2022-10-20T04:30:48.150Z,98311.47
2022-10-20T04:33:15.433Z,98309.13
2022-10-20T04:35:42.355Z,98310.50
2022-10-20T04:38:09.439Z,98317.25
2022-10-20T04:40:36.343Z,98320.75
2022-10-20T04:43:03.219Z,98324.06
2022-10-20T04:45:30.115Z,98337.19
2022-10-20T04:47:57.017Z,98333.72
2022-10-20T04:50:23.917Z,98333.16
2022-10-20T04:53:06.645Z,98342.28
2022-10-20T04:55:33.703Z,98350.41
2022-10-20T04:58:00.541Z,98351.00
2022-10-20T05:00:27.574Z,98349.88
2022-10-20T05:02:55.385Z,98356.53
2022-10-20T05:05:22.221Z,98361.41
2022-10-20T05:07:49.036Z,98368.59
2022-10-20T05:10:15.926Z,98373.19
2022-10-20T05:12:42.782Z,98380.81
2022-10-20T05:15:09.893Z,98379.69
2022-10-20T05:17:37.416Z,98386.66
2022-10-20T05:20:04.743Z,98403.84
2022-10-20T05:22:31.637Z,98405.50
2022-10-20T05:25:12.688Z,98408.94
2022-10-20T05:27:45.500Z,98413.13
2022-10-20T05:30:12.330Z,98410.88
2022-10-20T05:32:39.192Z,98415.75
2022-10-20T05:35:06.533Z,98419.75
2022-10-20T05:37:33.396Z,98423.06
2022-10-20T05:40:03.689Z,98429.88
2022-10-20T05:42:30.695Z,98438.44
2022-10-20T05:44:57.581Z,98433.03
2022-10-20T05:47:24.744Z,98441.75
2022-10-20T05:49:51.689Z,98439.56
2022-10-20T05:52:18.564Z,98447.88
2022-10-20T05:54:45.467Z,98450.50
2022-10-20T05:57:12.309Z,98461.44
2022-10-20T05:59:39.313Z,98461.72
2022-10-20T06:02:06.675Z,98470.44
2022-10-20T06:04:33.758Z,98470.56
2022-10-20T06:07:00.670Z,98473.63
2022-10-20T06:09:27.561Z,98475.31
2022-10-20T06:11:54.991Z,98483.19
2022-10-20T06:14:22.628Z,98484.72
2022-10-20T06:16:53.905Z,98492.19
2022-10-20T06:19:20.840Z,98492.88
2022-10-20T06:21:49.295Z,98496.19
2022-10-20T06:24:17.251Z,98496.88
2022-10-20T06:26:44.173Z,98503.25
2022-10-20T06:29:14.538Z,98503.38
2022-10-20T06:31:44.914Z,98497.03
2022-10-20T06:34:18.271Z,98501.84
2022-10-20T06:36:45.658Z,98511.53
2022-10-20T06:39:15.767Z,98505.03
2022-10-20T06:41:42.826Z,98515.25
2022-10-20T06:44:19.398Z,98514.97
2022-10-20T06:46:46.769Z,98522.31
2022-10-20T06:49:14.191Z,98526.63
2022-10-20T06:51:41.517Z,98528.28
2022-10-20T06:54:09.412Z,98524.13
2022-10-20T06:56:37.372Z,98527.59
2022-10-20T06:59:04.304Z,98527.28
2022-10-20T07:01:33.954Z,98532.69
2022-10-20T07:04:06.288Z,98536.56
2022-10-20T07:06:36.374Z,98550.53
2022-10-20T07:09:05.159Z,98539.91
2022-10-20T07:11:32.769Z,98548.19
2022-10-20T07:14:00.663Z,98539.78
2022-10-20T07:16:30.751Z,98546.00
2022-10-20T07:18:57.859Z,98546.84
2022-10-20T07:21:32.270Z,98550.19
2022-10-20T07:24:04.484Z,98558.22
2022-10-20T07:26:33.793Z,98549.91
2022-10-20T07:29:03.022Z,98554.28
2022-10-20T07:31:33.039Z,98557.03
2022-10-20T07:34:12.846Z,98556.59
2022-10-20T07:36:47.567Z,98549.69
2022-10-20T07:39:14.469Z,98556.31
2022-10-20T07:41:44.159Z,98563.78
2022-10-20T07:44:11.354Z,98562.69
2022-10-20T07:46:38.214Z,98565.19
2022-10-20T07:51:52.123Z,98568.25
2022-10-20T07:54:19.098Z,98567.72
2022-10-20T07:56:46.522Z,98568.81
2022-10-20T07:59:14.152Z,98567.72
2022-10-20T08:01:41.922Z,98569.06
2022-10-20T08:04:08.893Z,98567.16
2022-10-20T08:06:35.765Z,98570.78
2022-10-20T08:09:02.781Z,98576.03
2022-10-20T08:11:29.881Z,98578.38
2022-10-20T08:13:56.748Z,98584.91
2022-10-20T08:16:30.527Z,98584.34
2022-10-20T08:19:02.971Z,98587.81
2022-10-20T08:21:30.041Z,98582.13
2022-10-20T08:23:57.014Z,98577.69
2022-10-20T08:26:25.971Z,98588.22
2022-10-20T08:28:54.830Z,98589.88
2022-10-20T08:31:23.306Z,98580.38
2022-10-20T08:33:52.955Z,98582.16
2022-10-20T08:36:21.143Z,98585.22
2022-10-20T08:38:48.269Z,98589.66
2022-10-20T08:41:25.681Z,98579.97
2022-10-20T08:43:55.304Z,98583.16
2022-10-20T08:46:29.069Z,98583.88
2022-10-20T08:48:56.581Z,98587.22
2022-10-20T08:51:34.781Z,98592.63
2022-10-20T08:54:02.802Z,98585.28
2022-10-20T08:56:31.209Z,98594.44
2022-10-20T08:58:58.213Z,98597.47
2022-10-20T09:01:29.351Z,98600.38
2022-10-20T09:04:20.201Z,98595.53
2022-10-20T09:06:53.688Z,98603.84
2022-10-20T09:09:23.155Z,98605.22
2022-10-20T09:11:51.272Z,98603.13
2022-10-20T09:14:18.235Z,98593.41
2022-10-20T09:16:59.688Z,98597.19
2022-10-20T09:19:28.572Z,98606.66
2022-10-20T09:21:58.470Z,98602.06
2022-10-20T09:24:30.114Z,98622.16
2022-10-20T09:27:15.955Z,98623.53
2022-10-20T09:29:42.909Z,98618.34
2022-10-20T09:32:45.929Z,98620.25
2022-10-20T09:35:30.112Z,98610.84
2022-10-20T09:38:02.203Z,98610.34
2022-10-20T09:40:29.874Z,98614.22
2022-10-20T09:43:11.056Z,98612.69
2022-10-20T10:17:12.006Z,98614.69
2022-10-20T10:19:38.841Z,98622.16
2022-10-20T10:22:05.792Z,98618.31
2022-10-20T10:24:42.759Z,98621.13
2022-10-20T10:27:36.745Z,98613.91
2022-10-20T10:30:37.333Z,98618.75
2022-10-20T10:33:27.742Z,98618.59
2022-10-20T10:35:55.125Z,98614.66
2022-10-20T10:38:22.414Z,98606.22
2022-10-20T10:41:16.174Z,98597.78
2022-10-20T10:44:07.092Z,98613.66
2022-10-20T10:49:27.912Z,98607.34
2022-10-20T10:51:57.710Z,98610.53
2022-10-20T10:54:39.482Z,98608.13
2022-10-20T10:57:18.295Z,98606.75
2022-10-20T10:59:49.842Z,98602.91
2022-10-20T11:02:54.114Z,98598.28
2022-10-20T11:05:46.844Z,98595.94
2022-10-20T11:08:31.960Z,98595.75
2022-10-20T11:11:07.530Z,98603.28
2022-10-20T11:13:45.485Z,98597.91
2022-10-20T11:16:15.406Z,98591.25
2022-10-20T11:19:17.146Z,98599.88
2022-10-20T11:22:28.571Z,98593.53
2022-10-20T11:25:12.334Z,98601.66
2022-10-20T11:27:39.512Z,98598.78
2022-10-20T11:30:22.271Z,98597.81
2022-10-20T11:33:06.315Z,98598.59
2022-10-20T11:35:49.655Z,98599.31
2022-10-20T11:38:31.473Z,98598.50
2022-10-20T11:41:19.218Z,98598.91
2022-10-20T11:44:27.533Z,98593.94
2022-10-20T11:47:08.086Z,98592.75
2022-10-20T11:49:35.253Z,98597.88
2022-10-20T11:52:29.170Z,98591.97
2022-10-20T11:55:17.318Z,98594.97
2022-10-20T11:57:57.695Z,98590.38
2022-10-20T12:00:38.156Z,98589.75
2022-10-20T12:03:38.051Z,98580.94
2022-10-20T12:06:19.711Z,98589.25
2022-10-20T12:09:23.933Z,98594.94
2022-10-20T12:11:57.494Z,98589.91
2022-10-20T12:14:33.770Z,98585.09
2022-10-20T12:17:27.142Z,98601.38
2022-10-20T12:20:23.085Z,98602.84
2022-10-20T12:22:55.333Z,98605.53
2022-10-20T12:25:24.921Z,98587.22
2022-10-20T12:28:22.948Z,98600.88
2022-10-20T12:31:02.912Z,98606.81
2022-10-20T12:33:59.339Z,98601.09
2022-10-20T12:36:33.669Z,98605.97
2022-10-20T12:39:29.679Z,98601.09
2022-10-20T12:42:01.098Z,98598.47
2022-10-20T12:44:32.413Z,98606.66
2022-10-20T12:47:07.696Z,98612.13
2022-10-20T12:49:43.196Z,98613.31
2022-10-20T12:52:21.264Z,98613.63
2022-10-20T12:54:55.540Z,98614.13
2022-10-20T12:57:45.275Z,98622.38
2022-10-20T13:00:23.606Z,98621.34
2022-10-20T13:02:51.273Z,98630.94
2022-10-20T13:05:44.633Z,98626.69
2022-10-20T13:08:23.458Z,98626.81
2022-10-20T13:10:50.918Z,98634.72
2022-10-20T13:13:20.663Z,98628.84
2022-10-20T13:15:51.673Z,98636.81
2022-10-20T13:18:47.120Z,98623.94
2022-10-20T13:21:32.814Z,98622.94
2022-10-20T13:24:04.421Z,98622.69
2022-10-20T13:26:51.613Z,98627.25
2022-10-20T13:29:43.981Z,98628.97
2022-10-20T13:32:16.863Z,98624.56
2022-10-20T13:34:52.323Z,98628.44
2022-10-20T13:37:55.246Z,98632.38
2022-10-20T13:40:51.488Z,98632.09
2022-10-20T13:43:29.996Z,98630.41
2022-10-20T13:46:25.248Z,98621.25
2022-10-20T13:49:15.526Z,98620.59
2022-10-20T13:51:52.488Z,98618.25
2022-10-20T13:54:44.878Z,98626.03
2022-10-20T13:57:32.685Z,98631.97
2022-10-20T14:00:17.554Z,98640.97
2022-10-20T14:03:01.707Z,98641.94
2022-10-20T14:05:36.100Z,98637.63
2022-10-20T14:08:08.855Z,98647.03
2022-10-20T14:10:38.836Z,98645.38
2022-10-20T14:13:10.804Z,98637.88
2022-10-20T14:15:38.113Z,98638.94
2022-10-20T14:18:08.614Z,98641.84
2022-10-20T14:20:42.019Z,98642.84
2022-10-20T14:23:11.082Z,98649.00
2022-10-20T14:25:38.837Z,98644.81
2022-10-20T14:28:07.581Z,98645.22
2022-10-20T14:30:38.695Z,98647.59
2022-10-20T14:33:14.923Z,98638.00
2022-10-20T14:35:50.502Z,98649.53
2022-10-20T14:38:29.811Z,98650.91
2022-10-20T14:40:58.469Z,98644.94
2022-10-20T14:43:39.143Z,98650.75
2022-10-20T14:46:09.084Z,98657.28
2022-10-20T14:48:44.681Z,98649.25
2022-10-20T14:51:45.103Z,98653.13
2022-10-20T14:54:21.244Z,98657.84
2022-10-20T14:57:19.247Z,98650.91
2022-10-20T14:59:59.140Z,98646.78
2022-10-20T15:02:29.484Z,98653.34
2022-10-20T15:04:56.643Z,98657.25
2022-10-20T15:07:28.452Z,98653.25
2022-10-20T15:10:06.235Z,98654.03
2022-10-20T15:12:42.711Z,98652.66
2022-10-20T15:15:12.600Z,98652.38
2022-10-20T15:17:43.964Z,98663.16
2022-10-20T15:20:34.588Z,98653.47
2022-10-20T15:23:22.854Z,98661.06
2022-10-20T15:25:54.767Z,98664.50
2022-10-20T15:28:45.896Z,98673.91
2022-10-20T15:31:12.795Z,98668.34
2022-10-20T15:33:42.891Z,98671.06
2022-10-20T15:36:28.361Z,98672.97
2022-10-20T15:38:56.567Z,98674.31
2022-10-20T15:41:28.539Z,98673.31
2022-10-20T15:43:55.543Z,98676.22
2022-10-20T15:46:23.089Z,98673.13
2022-10-20T15:48:50.132Z,98678.91
2022-10-20T15:51:17.100Z,98684.16
2022-10-20T15:53:46.132Z,98686.19
2022-10-20T15:56:13.004Z,98698.44
2022-10-20T15:58:40.129Z,98695.59
2022-10-20T16:01:07.860Z,98697.41
2022-10-20T16:03:35.872Z,98702.06
2022-10-20T16:06:02.734Z,98701.88
2022-10-20T16:08:29.813Z,98709.03
2022-10-20T16:10:57.519Z,98713.81
2022-10-20T16:13:24.467Z,98718.91
2022-10-20T16:15:51.451Z,98724.88
2022-10-20T16:18:18.298Z,98718.75
2022-10-20T16:20:45.226Z,98721.97
2022-10-20T16:23:12.219Z,98727.47
2022-10-20T16:25:40.801Z,98726.41
2022-10-20T16:28:07.909Z,98730.38
2022-10-20T16:30:34.970Z,98734.09
2022-10-20T16:33:02.043Z,98736.25
2022-10-20T16:35:28.965Z,98746.97
2022-10-20T16:37:56.184Z,98750.56
2022-10-20T16:40:23.419Z,98757.72
2022-10-20T16:42:50.286Z,98754.38
2022-10-20T16:45:17.387Z,98752.72
2022-10-20T16:47:44.347Z,98753.31
2022-10-20T16:50:11.412Z,98746.50
2022-10-20T16:52:38.485Z,98762.50
2022-10-20T16:55:05.770Z,98754.38
2022-10-20T16:57:38.977Z,98766.78
2022-10-20T17:00:09.033Z,98763.44
2022-10-20T17:02:36.685Z,98767.03
2022-10-20T17:05:06.800Z,98765.56
2022-10-20T17:07:36.613Z,98772.94
2022-10-20T17:10:03.852Z,98777.69
2022-10-20T17:12:30.771Z,98778.66
2022-10-20T17:14:57.648Z,98782.22
2022-10-20T17:17:24.616Z,98780.06
2022-10-20T17:19:51.579Z,98786.84
2022-10-20T17:22:19.968Z,98781.47
2022-10-20T17:24:46.817Z,98789.75
2022-10-20T17:27:13.719Z,98791.66
2022-10-20T17:29:40.749Z,98793.66
2022-10-20T17:32:07.622Z,98793.56
2022-10-20T17:34:34.767Z,98793.16
2022-10-20T17:37:01.701Z,98795.41
2022-10-20T17:39:28.709Z,98790.28
2022-10-20T17:41:55.910Z,98798.16
2022-10-20T17:44:22.816Z,98798.16
2022-10-20T17:46:49.682Z,98794.97
2022-10-20T17:49:16.621Z,98802.44
2022-10-20T17:51:44.309Z,98796.75
2022-10-20T17:54:11.200Z,98799.31
2022-10-20T17:56:40.265Z,98804.69
2022-10-20T17:59:08.941Z,98801.16
2022-10-20T18:01:39.010Z,98810.66
2022-10-20T18:04:08.657Z,98820.59
2022-10-20T18:06:36.805Z,98815.38
2022-10-20T18:09:12.503Z,98819.34
2022-10-20T18:11:43.964Z,98810.38
2022-10-20T18:14:10.957Z,98809.97
2022-10-20T18:16:39.673Z,98821.72
2022-10-20T18:19:08.103Z,98815.41
2022-10-20T18:21:35.022Z,98820.34
2022-10-20T18:24:07.491Z,98819.41
2022-10-20T18:26:36.893Z,98826.41
2022-10-20T18:29:06.120Z,98827.97
2022-10-20T18:31:35.196Z,98828.63
2022-10-20T18:34:06.946Z,98835.81
2022-10-20T18:36:39.107Z,98835.72
2022-10-20T18:39:09.895Z,98834.75
2022-10-20T18:41:39.857Z,98844.50
2022-10-20T18:44:10.165Z,98842.84
2022-10-20T18:46:37.764Z,98844.09
2022-10-20T18:49:07.131Z,98856.41
2022-10-20T18:51:36.021Z,98844.81
2022-10-20T18:54:04.973Z,98847.41
2022-10-20T18:56:32.136Z,98854.97
2022-10-20T18:59:01.873Z,98857.69
2022-10-20T19:01:31.317Z,98858.72
2022-10-20T19:03:59.620Z,98861.84
2022-10-20T19:06:29.615Z,98861.22
2022-10-20T19:08:59.713Z,98867.94
2022-10-20T19:11:29.480Z,98873.25
2022-10-20T19:13:57.673Z,98872.63
2022-10-20T19:16:30.514Z,98871.28
2022-10-20T19:18:59.434Z,98869.75
2022-10-20T19:21:28.316Z,98877.25
2022-10-20T19:24:07.512Z,98884.66
2022-10-20T19:26:43.691Z,98882.38
2022-10-20T19:29:14.402Z,98890.75
2022-10-20T19:31:46.166Z,98890.91
2022-10-20T19:34:25.548Z,98893.66
2022-10-20T19:36:53.121Z,98898.78
2022-10-20T19:39:27.303Z,98896.91
2022-10-20T19:41:56.707Z,98898.09
2022-10-20T19:44:23.935Z,98896.97
2022-10-20T19:46:52.155Z,98898.50
2022-10-20T19:49:20.402Z,98899.53
2022-10-20T19:51:47.522Z,98904.34
2022-10-20T19:54:14.951Z,98917.16
2022-10-20T19:56:42.232Z,98924.19
2022-10-20T19:59:09.893Z,98922.25
2022-10-20T20:01:37.670Z,98923.09
2022-10-20T20:04:05.596Z,98923.44
2022-10-20T20:06:34.287Z,98924.16
2022-10-20T20:09:04.260Z,98921.88
2022-10-20T20:11:31.321Z,98929.41
2022-10-20T20:14:00.878Z,98924.19
2022-10-20T20:16:29.217Z,98927.91
2022-10-20T20:18:56.314Z,98924.78
2022-10-20T20:21:23.953Z,98938.66
2022-10-20T20:23:59.201Z,98932.22
2022-10-20T20:26:27.718Z,98937.34
2022-10-20T20:28:55.982Z,98942.13
2022-10-20T20:31:23.386Z,98948.16
2022-10-20T20:33:50.853Z,98951.59
2022-10-20T20:36:17.751Z,98940.03
2022-10-20T20:38:44.819Z,98941.53
2022-10-20T20:41:17.271Z,98940.78
2022-10-20T20:43:47.555Z,98942.75
2022-10-20T20:46:16.836Z,98945.63
2022-10-20T20:48:44.277Z,98945.84
2022-10-20T20:51:11.963Z,98946.13
2022-10-20T20:53:39.917Z,98951.34
2022-10-20T20:56:10.062Z,98952.06
2022-10-20T20:58:37.433Z,98952.91
2022-10-20T21:01:13.761Z,98956.06
2022-10-20T21:03:40.899Z,98960.75
2022-10-20T21:06:13.755Z,98955.34
2022-10-20T21:08:43.282Z,98956.81
2022-10-20T21:11:18.468Z,98957.16
2022-10-20T21:13:46.807Z,98952.75
2022-10-20T21:16:20.776Z,98961.53
2022-10-20T21:18:49.611Z,98959.97
2022-10-20T21:21:24.632Z,98958.94
2022-10-20T21:23:52.172Z,98959.59
2022-10-20T21:26:20.766Z,98962.59
2022-10-20T21:28:48.156Z,98960.31
2022-10-20T21:31:18.262Z,98961.25
2022-10-20T21:33:46.448Z,98961.94
2022-10-20T21:36:16.070Z,98961.03
2022-10-20T21:38:43.978Z,98963.66
2022-10-20T21:41:16.413Z,98962.72
2022-10-20T21:43:48.085Z,98973.94
2022-10-20T21:46:21.208Z,98977.03
2022-10-20T21:48:50.119Z,98974.53
2022-10-20T21:51:26.638Z,98973.72
2022-10-20T21:54:02.141Z,98978.69
2022-10-20T21:56:29.556Z,98977.81
2022-10-20T21:58:56.598Z,98974.34
2022-10-20T22:01:25.206Z,98976.03
2022-10-20T22:03:53.753Z,98974.19
2022-10-20T22:06:23.047Z,98976.97
2022-10-20T22:08:52.035Z,98980.09
2022-10-20T22:11:22.702Z,98980.81
2022-10-20T22:13:50.202Z,98978.75
2022-10-20T22:16:20.699Z,98983.16
2022-10-20T22:18:47.675Z,98984.91
2022-10-20T22:21:17.454Z,98990.03
2022-10-20T22:23:45.470Z,98990.34
2022-10-20T22:26:13.460Z,98988.66
2022-10-20T22:28:41.053Z,98983.53
2022-10-20T22:31:08.120Z,98983.44
2022-10-20T22:33:35.464Z,98990.63
2022-10-20T22:36:03.814Z,98989.25
2022-10-20T22:38:30.860Z,98992.69
2022-10-20T22:40:59.261Z,98990.47
2022-10-20T22:43:27.384Z,98986.09
2022-10-20T22:45:54.446Z,98992.69
2022-10-20T22:48:21.670Z,98983.97
2022-10-20T22:50:48.841Z,98993.66
2022-10-20T22:53:15.881Z,98984.53
2022-10-20T22:55:42.804Z,98993.34
2022-10-20T22:58:10.038Z,98991.09
2022-10-20T23:00:40.101Z,98991.47
2022-10-20T23:03:07.268Z,98991.47
2022-10-20T23:05:34.194Z,98986.53
2022-10-20T23:08:01.117Z,98989.63
2022-10-20T23:10:28.288Z,98997.25
2022-10-20T23:12:55.143Z,98990.00
2022-10-20T23:15:22.012Z,98999.03
2022-10-20T23:17:48.910Z,98995.91
2022-10-20T23:20:15.980Z,99000.13
2022-10-20T23:22:42.876Z,98994.25
2022-10-20T23:25:10.015Z,98997.63
2022-10-20T23:27:37.352Z,99001.22
2022-10-20T23:30:04.815Z,98999.66
2022-10-20T23:32:31.740Z,99001.13
2022-10-20T23:34:58.736Z,99002.25
2022-10-20T23:37:25.583Z,98993.31
2022-10-20T23:39:52.450Z,98999.81
2022-10-20T23:42:19.278Z,98998.47
2022-10-20T23:44:46.179Z,98999.09
2022-10-20T23:47:13.039Z,98994.66
2022-10-20T23:49:39.895Z,98997.38
2022-10-20T23:52:06.722Z,99004.50
2022-10-20T23:54:33.645Z,98994.09
2022-10-20T23:57:00.548Z,98992.66
2022-10-20T23:59:27.374Z,98995.38
